Time;durP1;ratioP1;P1;durP2;ratioP2;P2;SDS_P1;SDS_P2;PMS_P1;PMS_P2;Temp;Humidity;BMP_temperature;BMP_pressure;BME280_temperature;BME280_humidity;BME280_pressure;Samples;Min_cycle;Max_cycle;Signal;HPM_P1;HPM_P2
2022/05/26 00:01:00;;;;;;;16.70;8.50;;;13.20;99.90;;;;;;4994390;28;20038;-85
2022/05/26 00:03:26;;;;;;;16.63;8.27;;;13.30;99.90;;;;;;4996321;28;20076;-86
2022/05/26 00:05:51;;;;;;;17.83;9.18;;;13.30;99.90;;;;;;4994836;28;20054;-86
2022/05/26 00:08:17;;;;;;;19.42;9.52;;;13.20;99.90;;;;;;4995928;28;20486;-86
2022/05/26 00:10:43;;;;;;;19.48;10.00;;;13.20;99.90;;;;;;4995138;28;20038;-86
2022/05/26 00:13:08;;;;;;;16.75;8.13;;;13.20;99.90;;;;;;4999957;28;20100;-86
2022/05/26 00:15:34;;;;;;;15.52;7.65;;;13.10;99.90;;;;;;4997085;28;20059;-86
2022/05/26 00:17:59;;;;;;;14.15;8.18;;;13.10;99.90;;;;;;4994722;28;20764;-86
2022/05/26 00:20:25;;;;;;;18.05;8.50;;;13.10;99.90;;;;;;4996053;28;20176;-86
2022/05/26 00:22:50;;;;;;;16.42;8.93;;;13.10;99.90;;;;;;4999132;28;20054;-86
2022/05/26 00:25:16;;;;;;;17.45;9.63;;;13.00;99.90;;;;;;4996478;28;20382;-86
2022/05/26 00:27:42;;;;;;;21.60;9.20;;;13.00;99.90;;;;;;4996737;28;20145;-86
2022/05/26 00:30:08;;;;;;;22.38;10.35;;;12.90;99.90;;;;;;4995831;28;20054;-86
2022/05/26 00:32:34;;;;;;;23.38;10.70;;;13.00;99.90;;;;;;4995017;28;20042;-86
2022/05/26 00:34:59;;;;;;;22.17;11.60;;;12.90;99.90;;;;;;4996558;28;20050;-87
2022/05/26 00:37:25;;;;;;;23.35;11.45;;;12.90;99.90;;;;;;4995324;28;20050;-86
2022/05/26 00:39:50;;;;;;;20.20;11.13;;;13.00;99.90;;;;;;4994918;28;20064;-87
2022/05/26 00:42:16;;;;;;;23.05;11.30;;;12.80;99.90;;;;;;4995250;28;20088;-87
2022/05/26 00:44:42;;;;;;;22.70;11.35;;;12.90;99.90;;;;;;4994925;28;20065;-87
2022/05/26 00:47:20;;;;;;;25.13;11.85;;;12.80;99.90;;;;;;4996019;28;20050;-87
2022/05/26 00:50:01;;;;;;;27.45;12.80;;;12.80;99.90;;;;;;4994818;28;20046;-87
2022/05/26 00:52:35;;;;;;;26.95;12.18;;;12.90;99.90;;;;;;4996867;28;20050;-87
2022/05/26 00:55:07;;;;;;;29.35;13.18;;;12.90;99.90;;;;;;4995846;28;20498;-86
2022/05/26 00:57:50;;;;;;;26.80;13.13;;;12.90;99.90;;;;;;4996064;28;20471;-86
2022/05/26 01:00:21;;;;;;;24.80;11.75;;;12.90;99.90;;;;;;4995868;28;20038;-87
2022/05/26 01:03:01;;;;;;;23.20;12.18;;;12.90;99.90;;;;;;4994712;28;20411;-87
2022/05/26 01:05:36;;;;;;;27.02;12.75;;;13.00;99.90;;;;;;4996378;28;20084;-87
2022/05/26 01:08:05;;;;;;;21.70;11.30;;;12.90;99.90;;;;;;4993544;28;20047;-86
2022/05/26 01:10:31;;;;;;;26.67;12.57;;;12.90;99.90;;;;;;4996403;28;20042;-87
2022/05/26 01:12:56;;;;;;;23.50;11.75;;;12.90;99.90;;;;;;4995940;28;20042;-87
2022/05/26 01:15:23;;;;;;;29.27;12.82;;;13.00;99.90;;;;;;4993968;28;20149;-86
2022/05/26 01:18:07;;;;;;;25.30;12.05;;;12.90;99.90;;;;;;4994681;28;20038;-86
2022/05/26 01:20:36;;;;;;;28.88;12.38;;;13.00;99.90;;;;;;4994560;28;20046;-86
2022/05/26 01:23:07;;;;;;;26.88;13.02;;;13.00;99.90;;;;;;4994465;28;20413;-86
2022/05/26 01:26:03;;;;;;;25.55;12.52;;;13.00;99.90;;;;;;4994757;28;20043;-86
2022/05/26 01:28:57;;;;;;;29.35;11.95;;;12.90;99.90;;;;;;4993747;28;20086;-86
2022/05/26 01:31:44;;;;;;;23.10;12.32;;;13.00;99.90;;;;;;4995853;28;20125;-85
2022/05/26 01:34:53;;;;;;;26.17;11.75;;;13.00;99.90;;;;;;4994543;28;20057;-85
2022/05/26 01:37:42;;;;;;;27.20;12.15;;;13.00;99.90;;;;;;4993368;28;20516;-86
2022/05/26 01:40:34;;;;;;;28.75;12.45;;;12.90;99.90;;;;;;4994171;28;20046;-87
2022/05/26 01:43:25;;;;;;;28.02;12.40;;;13.00;99.90;;;;;;4994288;28;20564;-85
2022/05/26 01:45:59;;;;;;;34.03;13.38;;;13.00;99.90;;;;;;4993969;28;20549;-85
2022/05/26 01:48:28;;;;;;;28.23;13.90;;;13.00;99.90;;;;;;4995294;28;20082;-86
2022/05/26 01:51:05;;;;;;;27.33;13.88;;;13.00;99.90;;;;;;4994305;28;20044;-86
2022/05/26 01:53:57;;;;;;;30.58;14.18;;;13.00;99.90;;;;;;4993975;28;20126;-86
2022/05/26 01:56:59;;;;;;;28.02;13.32;;;13.00;99.90;;;;;;4987118;28;20128;-86
2022/05/26 01:59:39;;;;;;;29.23;14.10;;;13.10;99.90;;;;;;4981659;28;20089;-85
2022/05/26 02:02:11;;;;;;;27.52;13.52;;;13.10;99.90;;;;;;5021202;28;20560;-86
2022/05/26 02:04:44;;;;;;;31.15;14.35;;;13.00;99.90;;;;;;5036522;28;20054;-86
2022/05/26 02:07:21;;;;;;;30.70;13.93;;;13.10;99.90;;;;;;5034552;28;20045;-86
2022/05/26 02:09:49;;;;;;;26.27;13.02;;;13.10;99.90;;;;;;5032789;28;20136;-86
2022/05/26 02:12:21;;;;;;;34.08;15.07;;;13.10;99.90;;;;;;5032412;28;20098;-85
2022/05/26 02:15:15;;;;;;;34.92;14.63;;;13.00;99.90;;;;;;5037228;28;20056;-86
2022/05/26 02:17:47;;;;;;;30.90;14.32;;;13.10;99.90;;;;;;5030279;28;20248;-86
2022/05/26 02:20:19;;;;;;;29.63;13.32;;;13.00;99.90;;;;;;5033172;28;20449;-85
2022/05/26 02:22:58;;;;;;;30.88;14.55;;;13.10;99.90;;;;;;5033927;28;20056;-86
2022/05/26 02:25:26;;;;;;;33.33;14.63;;;13.10;99.90;;;;;;5033252;28;20073;-86
2022/05/26 02:27:55;;;;;;;30.92;14.57;;;13.00;99.90;;;;;;5032453;28;20093;-86
2022/05/26 02:30:25;;;;;;;29.50;13.77;;;13.10;99.90;;;;;;5033049;28;20088;-86
2022/05/26 02:32:53;;;;;;;33.63;14.63;;;13.00;99.90;;;;;;5033100;28;20080;-86
2022/05/26 02:35:23;;;;;;;29.90;14.32;;;13.00;99.90;;;;;;5032274;28;20056;-86
2022/05/26 02:37:52;;;;;;;28.27;14.57;;;13.00;99.90;;;;;;5033712;28;20125;-86
2022/05/26 02:40:18;;;;;;;37.25;15.23;;;13.00;99.90;;;;;;5033478;28;20091;-86
2022/05/26 02:42:51;;;;;;;32.70;15.10;;;13.00;99.90;;;;;;5032167;28;20053;-86
2022/05/26 02:45:44;;;;;;;35.50;14.70;;;13.00;99.90;;;;;;5031976;28;20049;-86
2022/05/26 02:48:16;;;;;;;34.45;14.68;;;12.90;99.90;;;;;;5032273;28;20127;-86
2022/05/26 02:51:14;;;;;;;30.40;14.48;;;12.90;99.90;;;;;;5033464;28;20098;-86
2022/05/26 02:53:56;;;;;;;33.65;14.70;;;12.80;99.90;;;;;;5088037;22;20053;-86
2022/05/26 02:56:50;;;;;;;32.95;13.95;;;13.00;99.90;;;;;;5032223;28;20095;-85
2022/05/26 02:59:57;;;;;;;34.50;14.88;;;12.90;99.90;;;;;;5020956;28;20056;-85
2022/05/26 03:02:31;;;;;;;42.90;15.57;;;12.90;99.90;;;;;;5057319;28;20061;-85
2022/05/26 03:05:15;;;;;;;39.30;15.60;;;13.00;99.90;;;;;;5036481;28;20443;-86
2022/05/26 03:07:43;;;;;;;31.63;14.90;;;13.00;99.90;;;;;;5033196;28;20046;-86
2022/05/26 03:10:10;;;;;;;31.83;14.82;;;12.90;99.90;;;;;;5032205;28;20049;-86
2022/05/26 03:12:36;;;;;;;30.00;14.10;;;12.90;99.90;;;;;;5032751;28;20056;-86
2022/05/26 03:15:04;;;;;;;32.22;14.43;;;12.90;99.90;;;;;;5032684;28;20072;-86
2022/05/26 03:17:29;;;;;;;31.38;15.20;;;12.90;99.90;;;;;;5031832;28;20120;-85
2022/05/26 03:19:55;;;;;;;35.75;15.30;;;13.00;99.90;;;;;;5032751;28;20124;-86
2022/05/26 03:22:21;;;;;;;37.65;15.55;;;12.90;99.90;;;;;;5031051;28;20573;-86
2022/05/26 03:24:46;;;;;;;35.95;15.18;;;12.90;99.90;;;;;;5032725;28;20509;-86
2022/05/26 03:27:12;;;;;;;36.72;15.45;;;12.90;99.90;;;;;;5031588;28;20076;-86
2022/05/26 03:29:38;;;;;;;35.70;15.75;;;13.00;99.90;;;;;;5030939;28;20049;-86
2022/05/26 03:32:05;;;;;;;37.30;15.40;;;13.00;99.90;;;;;;5032727;28;20049;-85
2022/05/26 03:42:44;;;;;;;;;;;13.00;99.90;;;;;;5030726;28;20061;-86
2022/05/26 03:45:10;;;;;;;34.92;14.88;;;13.00;99.90;;;;;;5031499;28;19921;-86
2022/05/26 03:47:36;;;;;;;33.85;14.07;;;13.00;99.90;;;;;;5032695;28;20503;-86
2022/05/26 03:50:01;;;;;;;31.88;12.98;;;13.00;99.90;;;;;;5031505;28;20049;-86
2022/05/26 03:52:27;;;;;;;31.23;13.73;;;13.10;99.90;;;;;;5032248;28;20132;-86
2022/05/26 03:54:53;;;;;;;31.17;13.32;;;13.10;99.90;;;;;;5031116;28;20085;-86
2022/05/26 03:57:26;;;;;;;33.60;13.50;;;13.10;99.90;;;;;;5030878;28;20504;-86
2022/05/26 03:59:52;;;;;;;34.75;13.80;;;13.10;99.90;;;;;;5031038;28;20493;-86
2022/05/26 04:02:18;;;;;;;34.30;13.27;;;13.10;99.90;;;;;;5031074;28;20052;-86
2022/05/26 04:04:44;;;;;;;37.25;14.13;;;13.20;99.90;;;;;;5029928;28;20046;-86
2022/05/26 04:07:11;;;;;;;31.05;13.63;;;13.20;99.90;;;;;;5030477;28;20056;-86
2022/05/26 04:09:42;;;;;;;37.42;13.73;;;13.20;99.90;;;;;;5032380;28;20416;-86
2022/05/26 04:12:09;;;;;;;33.20;13.63;;;13.10;99.90;;;;;;5032590;28;20075;-86
2022/05/26 04:14:35;;;;;;;32.45;13.25;;;13.20;99.90;;;;;;5032966;28;20044;-86
2022/05/26 04:17:02;;;;;;;32.35;13.10;;;13.10;99.90;;;;;;5030316;28;20667;-86
2022/05/26 04:19:28;;;;;;;35.08;13.10;;;13.20;99.90;;;;;;5032819;28;20049;-86
2022/05/26 04:24:38;;;;;;;34.42;12.93;;;13.30;99.90;;;;;;5030716;28;20053;-86
2022/05/26 04:27:04;;;;;;;36.97;12.90;;;13.30;99.90;;;;;;5031118;28;20423;-86
2022/05/26 04:29:31;;;;;;;36.70;12.15;;;13.20;99.90;;;;;;5031075;28;20038;-86
2022/05/26 04:31:56;;;;;;;36.10;12.85;;;13.30;99.90;;;;;;5030104;28;20048;-86
2022/05/26 04:34:22;;;;;;;36.20;12.57;;;13.20;99.90;;;;;;5031210;28;20050;-86
2022/05/26 04:36:47;;;;;;;37.35;12.85;;;13.30;99.90;;;;;;5030374;28;20050;-86
2022/05/26 04:39:14;;;;;;;33.83;10.95;;;13.30;99.90;;;;;;5030381;28;20049;-86
2022/05/26 04:41:42;;;;;;;29.15;10.57;;;13.30;99.90;;;;;;5030661;28;20095;-85
2022/05/26 04:44:09;;;;;;;30.50;10.50;;;13.30;99.90;;;;;;5032177;28;20042;-85
2022/05/26 04:46:36;;;;;;;31.40;10.93;;;13.30;99.90;;;;;;5031444;28;20109;-85
2022/05/26 04:49:03;;;;;;;34.30;11.07;;;13.30;99.90;;;;;;5035547;28;20046;-86
2022/05/26 04:51:28;;;;;;;30.67;10.45;;;13.40;99.90;;;;;;5034321;28;20045;-86
2022/05/26 04:53:54;;;;;;;27.98;9.80;;;13.40;99.90;;;;;;5033167;28;20390;-86
2022/05/26 04:56:19;;;;;;;26.83;9.05;;;13.40;99.90;;;;;;5034680;28;20057;-86
2022/05/26 04:58:47;;;;;;;30.63;9.90;;;13.50;99.90;;;;;;5034133;28;20045;-85
2022/05/26 05:01:14;;;;;;;21.83;7.57;;;13.50;99.90;;;;;;5033567;28;20068;-85
2022/05/26 05:03:40;;;;;;;21.92;8.00;;;13.60;99.90;;;;;;5035607;28;20053;-86
2022/05/26 05:06:05;;;;;;;18.25;6.20;;;13.50;99.90;;;;;;5033257;28;20034;-86
2022/05/26 05:08:31;;;;;;;18.98;7.15;;;13.60;99.90;;;;;;5034213;28;20452;-85
2022/05/26 05:10:57;;;;;;;16.98;5.70;;;13.60;99.90;;;;;;5034008;28;20056;-86
2022/05/26 05:13:23;;;;;;;18.70;5.13;;;13.60;99.90;;;;;;5033327;28;20074;-86
2022/05/26 05:15:55;;;;;;;19.27;5.20;;;13.60;99.90;;;;;;5033734;28;20038;-86
2022/05/26 05:18:21;;;;;;;18.35;4.85;;;13.60;99.90;;;;;;5034106;28;20046;-86
2022/05/26 05:20:46;;;;;;;17.60;4.70;;;13.70;99.90;;;;;;5034300;28;20050;-85
2022/05/26 05:23:13;;;;;;;13.57;3.60;;;13.60;99.90;;;;;;5033915;28;20061;-85
2022/05/26 05:25:45;;;;;;;11.30;3.40;;;13.70;99.90;;;;;;5033933;28;20125;-86
2022/05/26 05:28:17;;;;;;;12.35;2.90;;;13.70;99.90;;;;;;5033081;28;20576;-85
2022/05/26 05:30:55;;;;;;;13.88;3.65;;;13.80;99.90;;;;;;5034664;28;20050;-86
2022/05/26 05:33:30;;;;;;;13.73;2.85;;;13.90;99.90;;;;;;5035364;28;20076;-85
2022/05/26 05:36:10;;;;;;;13.05;2.90;;;14.00;99.90;;;;;;5032481;28;20053;-85
2022/05/26 05:38:38;;;;;;;15.30;3.20;;;14.10;99.90;;;;;;5035217;28;20103;-86
2022/05/26 05:41:05;;;;;;;12.85;4.35;;;14.10;99.90;;;;;;5033362;28;20517;-85
2022/05/26 05:43:32;;;;;;;9.95;2.50;;;14.10;99.90;;;;;;5034790;28;20068;-86
2022/05/26 05:45:58;;;;;;;11.93;2.75;;;14.10;99.90;;;;;;5033191;28;20095;-85
2022/05/26 05:48:24;;;;;;;12.82;3.17;;;14.00;99.90;;;;;;5034193;28;20045;-85
2022/05/26 05:50:50;;;;;;;11.18;2.60;;;14.00;99.90;;;;;;5033002;28;20401;-86
2022/05/26 05:53:16;;;;;;;10.20;2.80;;;14.10;99.90;;;;;;5034301;28;20401;-85
2022/05/26 05:55:42;;;;;;;12.05;2.92;;;14.10;99.90;;;;;;5033965;28;20045;-85
2022/05/26 05:58:09;;;;;;;7.72;2.35;;;14.10;99.90;;;;;;5034035;28;20087;-85
2022/05/26 06:00:36;;;;;;;13.60;2.60;;;14.10;99.90;;;;;;5034756;28;20124;-83
2022/05/26 06:03:02;;;;;;;9.63;2.40;;;14.00;99.90;;;;;;5031356;28;20042;-84
2022/05/26 06:05:28;;;;;;;10.85;2.45;;;14.10;99.90;;;;;;5019608;28;20041;-88
2022/05/26 06:07:54;;;;;;;12.80;2.95;;;14.10;99.90;;;;;;5013796;28;20049;-88
2022/05/26 06:10:20;;;;;;;9.77;2.30;;;14.20;99.90;;;;;;5012336;28;20054;-88
2022/05/26 06:12:46;;;;;;;10.90;2.58;;;14.20;99.90;;;;;;5012685;28;20041;-87
2022/05/26 06:15:12;;;;;;;9.45;2.60;;;14.30;99.90;;;;;;5014524;28;20041;-87
2022/05/26 06:17:38;;;;;;;10.70;2.83;;;14.40;99.90;;;;;;5013613;28;20037;-89
2022/05/26 06:20:19;;;;;;;9.80;2.30;;;14.40;99.90;;;;;;5013939;28;20042;-90
2022/05/26 06:23:04;;;;;;;10.27;2.20;;;15.10;99.90;;;;;;5030652;23;20057;-89
2022/05/26 06:26:14;;;;;;;8.45;2.15;;;14.60;99.90;;;;;;5032157;28;20409;-90
2022/05/26 06:38:01;;;;;;;8.07;1.98;;;15.50;99.90;;;;;;5018777;28;20140;-89
2022/05/26 06:40:31;;;;;;;9.23;1.88;;;15.10;99.90;;;;;;5028520;28;20508;-89
2022/05/26 06:42:57;;;;;;;8.32;2.10;;;14.60;99.90;;;;;;5024041;28;20042;-87
2022/05/26 06:45:23;;;;;;;7.18;1.80;;;15.60;99.90;;;;;;5021997;28;20049;-86
2022/05/26 06:47:48;;;;;;;9.85;2.00;;;15.10;99.90;;;;;;5018896;28;20449;-87
2022/05/26 06:50:17;;;;;;;10.25;2.00;;;15.60;99.90;;;;;;5032759;28;20037;-89
2022/05/26 06:52:50;;;;;;;9.68;1.92;;;15.40;99.90;;;;;;5016482;28;20129;-89
2022/05/26 06:55:24;;;;;;;8.43;1.63;;;15.60;99.90;;;;;;5032658;28;20037;-88
2022/05/26 06:57:56;;;;;;;10.57;2.10;;;15.40;99.90;;;;;;5025167;28;20507;-88
2022/05/26 07:00:24;;;;;;;9.00;1.80;;;15.10;99.90;;;;;;5021949;28;20042;-88
2022/05/26 07:02:56;;;;;;;9.98;2.20;;;15.30;99.90;;;;;;5021904;28;20128;-88
2022/05/26 07:05:35;;;;;;;7.88;1.80;;;14.80;99.90;;;;;;5021106;28;20124;-89
2022/05/26 07:08:19;;;;;;;12.32;2.13;;;14.90;99.90;;;;;;5022338;28;20045;-89
2022/05/26 07:10:57;;;;;;;8.18;1.90;;;15.10;99.90;;;;;;5020776;28;20038;-88
2022/05/26 07:13:31;;;;;;;7.70;1.80;;;15.60;99.90;;;;;;5020482;28;20050;-89
2022/05/26 07:15:57;;;;;;;7.63;1.77;;;15.20;99.90;;;;;;5021269;28;20516;-88
2022/05/26 07:18:23;;;;;;;8.50;1.60;;;15.60;99.90;;;;;;5026108;28;20050;-90
2022/05/26 07:20:48;;;;;;;7.22;1.83;;;16.40;99.90;;;;;;5031699;28;20053;-90
2022/05/26 07:23:17;;;;;;;7.07;1.60;;;15.80;99.90;;;;;;5030209;28;20053;-90
2022/05/26 07:25:58;;;;;;;9.52;1.98;;;15.10;99.90;;;;;;5031479;28;20099;-90
2022/05/26 07:28:43;;;;;;;7.40;1.80;;;15.70;99.90;;;;;;5032335;28;20060;-89
2022/05/26 07:31:21;;;;;;;8.43;1.90;;;15.90;99.90;;;;;;5031889;28;20064;-90
2022/05/26 07:33:47;;;;;;;7.80;1.70;;;15.80;99.90;;;;;;5030230;28;20045;-89
2022/05/26 07:42:03;;;;;;;7.00;1.83;;;16.30;99.90;;;;;;5026346;28;20050;-90
2022/05/26 07:44:32;;;;;;;8.20;1.90;;;16.50;99.90;;;;;;5032775;28;20096;-89
2022/05/26 07:47:11;;;;;;;6.55;1.67;;;17.20;99.90;;;;;;5031555;28;20068;-89
2022/05/26 07:49:45;;;;;;;7.82;1.67;;;16.60;99.90;;;;;;5030997;28;20501;-88
2022/05/26 07:52:19;;;;;;;5.07;1.60;;;16.50;99.90;;;;;;5032744;28;20554;-88
2022/05/26 07:54:45;;;;;;;;;;;17.00;99.90;;;;;;5031313;28;20045;-89
2022/05/26 07:57:20;;;;;;;5.65;1.42;;;17.10;99.90;;;;;;5031627;28;20393;-88
2022/05/26 07:59:58;;;;;;;5.60;1.50;;;16.70;99.90;;;;;;5032538;28;20081;-89
2022/05/26 08:02:25;;;;;;;6.03;1.65;;;16.60;99.90;;;;;;4991302;28;20038;-90
2022/05/26 08:04:51;;;;;;;5.03;1.50;;;16.60;99.90;;;;;;4992838;28;20038;-89
2022/05/26 08:07:17;;;;;;;10.80;1.63;;;17.20;99.90;;;;;;4993226;28;20042;-92
2022/05/26 08:09:46;;;;;;;6.85;1.50;;;16.80;99.90;;;;;;4991690;28;20046;-92
2022/05/26 08:12:15;;;;;;;6.60;1.60;;;16.50;99.90;;;;;;5008893;28;20048;-92
2022/05/26 08:14:47;;;;;;;6.75;1.50;;;16.50;99.90;;;;;;5018320;28;20038;-93
2022/05/26 08:17:28;;;;;;;7.80;1.60;;;16.50;99.90;;;;;;5019774;28;20038;-91
2022/05/26 08:19:54;;;;;;;5.68;1.60;;;16.50;99.90;;;;;;5022381;28;20120;-93
2022/05/26 08:22:57;;;;;;;6.40;1.42;;;17.00;99.90;;;;;;5021302;23;20188;-90
2022/05/26 08:25:23;;;;;;;5.47;1.40;;;16.50;99.90;;;;;;5015391;28;20132;-89
2022/05/26 08:27:55;;;;;;;10.48;2.45;;;17.80;99.90;;;;;;5015973;28;20098;-89
2022/05/26 08:30:21;;;;;;;5.93;1.70;;;16.80;99.90;;;;;;5015569;28;20453;-88
2022/05/26 08:32:50;;;;;;;7.38;1.67;;;16.80;99.90;;;;;;5015041;28;20044;-90
2022/05/26 08:35:17;;;;;;;7.55;1.50;;;17.00;99.90;;;;;;5015049;28;20477;-90
2022/05/26 08:37:42;;;;;;;7.40;1.67;;;16.80;99.90;;;;;;5014288;28;20042;-90
2022/05/26 08:40:27;;;;;;;7.10;1.85;;;16.80;99.90;;;;;;5015396;28;20041;-90
2022/05/26 08:43:03;;;;;;;8.30;1.70;;;17.80;99.90;;;;;;5008451;28;20053;-94
2022/05/26 08:45:38;;;;;;;6.68;1.70;;;17.10;99.90;;;;;;5013544;28;20042;-94
2022/05/26 08:48:04;;;;;;;6.32;1.50;;;16.80;99.90;;;;;;5005774;23;20084;-93
2022/05/26 08:50:51;;;;;;;5.90;1.60;;;17.50;99.90;;;;;;5026093;23;20115;-94
2022/05/26 08:53:29;;;;;;;7.00;1.60;;;17.30;99.90;;;;;;5013779;28;20643;-88
2022/05/26 08:56:00;;;;;;;6.90;1.40;;;17.50;99.90;;;;;;5014291;28;20474;-88
2022/05/26 08:58:34;;;;;;;4.85;1.33;;;17.50;99.90;;;;;;5017984;28;20045;-91
2022/05/26 09:01:05;;;;;;;4.80;1.35;;;17.40;99.90;;;;;;5020476;28;20049;-94
2022/05/26 09:03:52;;;;;;;6.38;1.45;;;17.90;99.90;;;;;;5018766;28;20054;-93
2022/05/26 09:06:20;;;;;;;5.03;1.23;;;17.20;99.90;;;;;;5035892;28;20163;-92
2022/05/26 09:14:34;;;;;;;3.80;1.20;;;17.60;99.90;;;;;;5017749;28;20111;-91
2022/05/26 09:17:25;;;;;;;6.45;1.40;;;17.80;99.90;;;;;;5035823;28;20057;-93
2022/05/26 09:20:41;;;;;;;6.18;1.50;;;18.00;99.90;;;;;;5017503;28;20140;-96
2022/05/26 09:23:28;;;;;;;5.90;1.70;;;18.10;99.90;;;;;;5033277;28;20049;-89
2022/05/26 09:26:25;;;;;;;7.65;1.70;;;18.20;99.90;;;;;;5035252;28;20049;-90
2022/05/26 09:29:08;;;;;;;4.25;1.40;;;17.90;99.90;;;;;;5035121;28;20045;-89
2022/05/26 09:31:53;;;;;;;6.03;1.50;;;16.90;99.90;;;;;;5035206;28;20045;-91
2022/05/26 09:34:33;;;;;;;4.50;1.38;;;17.40;99.90;;;;;;5015515;28;20289;-90
2022/05/26 09:37:07;;;;;;;8.20;1.63;;;17.70;99.90;;;;;;5034622;28;20053;-89
2022/05/26 09:39:45;;;;;;;6.45;1.48;;;17.20;99.90;;;;;;5016682;28;20103;-89
2022/05/26 09:42:28;;;;;;;6.65;1.60;;;17.10;99.90;;;;;;5033840;28;20555;-89
2022/05/26 09:45:06;;;;;;;6.07;1.50;;;17.20;99.90;;;;;;5033593;28;20029;-89
2022/05/26 09:48:16;;;;;;;5.18;1.40;;;17.30;99.90;;;;;;5030456;28;20037;-90
2022/05/26 09:53:46;;;;;;;7.80;1.55;;;17.50;99.90;;;;;;4991511;28;20065;-90
2022/05/26 09:56:41;;;;;;;9.23;1.80;;;18.00;99.90;;;;;;4975006;28;20050;-90
2022/05/26 09:59:40;;;;;;;4.90;1.33;;;18.00;99.90;;;;;;5006798;28;20046;-91
2022/05/26 10:02:23;;;;;;;7.50;1.60;;;18.20;99.90;;;;;;4981008;28;20120;-88
2022/05/26 10:05:26;;;;;;;6.78;1.77;;;18.20;99.90;;;;;;4974767;28;20046;-88
2022/05/26 10:08:15;;;;;;;7.38;1.70;;;18.60;99.90;;;;;;4993052;28;20513;-87
2022/05/26 10:11:04;;;;;;;5.80;1.58;;;19.70;99.90;;;;;;4975410;28;20093;-88
2022/05/26 10:14:26;;;;;;;;;;;;;;;;;;;;;
2022/05/26 10:20:49;;;;;;;7.78;1.70;;;18.60;99.90;;;;;;4953690;29;20130;-88
2022/05/26 10:24:04;;;;;;;5.50;1.40;;;19.40;99.90;;;;;;4952774;28;20145;-90
2022/05/26 10:27:10;;;;;;;4.38;1.50;;;19.30;99.90;;;;;;4975032;28;20058;-89
2022/05/26 10:32:22;;;;;;;7.70;1.60;;;19.20;99.90;;;;;;5303927;23;20078;-94
2022/05/26 10:38:27;;;;;;;6.72;1.70;;;18.70;99.90;;;;;;5207185;23;20654;-93
2022/05/26 10:41:50;;;;;;;5.18;1.50;;;18.40;99.90;;;;;;4997072;28;20042;-93
2022/05/26 10:44:47;;;;;;;6.25;1.70;;;18.20;99.90;;;;;;4934192;29;20043;-95
2022/05/26 10:47:34;;;;;;;5.15;1.70;;;17.90;99.90;;;;;;4911611;28;20434;-93
2022/05/26 10:50:25;;;;;;;6.82;1.80;;;18.60;99.90;;;;;;5011210;28;20390;-87
2022/05/26 10:53:12;;;;;;;7.63;1.70;;;17.80;99.90;;;;;;5012931;28;20082;-89
2022/05/26 10:55:48;;;;;;;8.02;1.90;;;18.20;99.90;;;;;;4997189;28;20053;-91
2022/05/26 10:58:38;;;;;;;8.00;1.85;;;18.30;99.90;;;;;;4996239;28;20110;-88
2022/05/26 11:01:14;;;;;;;6.13;1.77;;;18.20;99.90;;;;;;5012220;28;20041;-88
2022/05/26 11:03:47;;;;;;;8.30;2.28;;;18.10;99.90;;;;;;4994990;28;20417;-86
2022/05/26 11:06:27;;;;;;;5.15;1.80;;;18.10;99.90;;;;;;5012715;28;20116;-88
2022/05/26 11:09:15;;;;;;;7.00;2.00;;;18.40;99.90;;;;;;4994579;28;20501;-86
2022/05/26 11:11:46;;;;;;;7.65;2.00;;;18.50;99.90;;;;;;4981494;28;20524;-84
2022/05/26 11:17:35;;;;;;;7.53;2.08;;;18.20;99.90;;;;;;5012570;28;20050;-88
2022/05/26 11:20:08;;;;;;;9.02;2.22;;;18.10;99.90;;;;;;5012585;28;20084;-88
2022/05/26 11:22:35;;;;;;;10.75;2.40;;;17.90;99.90;;;;;;4995603;28;20073;-89
2022/05/26 11:25:02;;;;;;;9.32;2.30;;;18.20;99.90;;;;;;4995636;28;20049;-89
2022/05/26 11:27:45;;;;;;;9.98;2.20;;;17.60;99.90;;;;;;4994781;28;20461;-88
2022/05/26 11:36:08;;;;;;;8.80;2.45;;;17.70;99.90;;;;;;4995501;28;20409;-88
2022/05/26 11:38:38;;;;;;;7.72;2.42;;;17.80;99.90;;;;;;4995516;28;20523;-88
2022/05/26 11:41:07;;;;;;;7.85;2.28;;;18.10;99.90;;;;;;5012423;28;20046;-88
2022/05/26 11:44:04;;;;;;;8.75;2.28;;;18.20;99.90;;;;;;5012915;28;20050;-88
2022/05/26 11:47:14;;;;;;;8.65;2.55;;;18.20;99.90;;;;;;5008224;28;20045;-88
2022/05/26 11:49:43;;;;;;;7.68;2.22;;;18.40;99.90;;;;;;4994863;28;20054;-88
2022/05/26 11:52:24;;;;;;;6.57;1.90;;;19.10;99.90;;;;;;5013216;28;20042;-88
2022/05/26 11:54:58;;;;;;;8.60;2.22;;;18.90;99.90;;;;;;5011794;28;20057;-87
2022/05/26 11:57:37;;;;;;;7.68;2.13;;;19.10;99.90;;;;;;5011985;28;20493;-88
2022/05/26 12:00:15;;;;;;;9.10;2.30;;;19.20;99.90;;;;;;5012611;28;20138;-88
2022/05/26 12:02:45;;;;;;;8.73;2.33;;;19.00;99.90;;;;;;5011951;28;20054;-89
2022/05/26 12:05:36;;;;;;;10.23;2.03;;;19.00;99.90;;;;;;4995391;28;20046;-89
2022/05/26 12:08:06;;;;;;;6.65;1.92;;;19.00;99.90;;;;;;4985200;28;20049;-88
2022/05/26 12:10:52;;;;;;;8.48;1.90;;;19.00;99.90;;;;;;4995574;28;20045;-89
2022/05/26 12:13:25;;;;;;;7.25;2.13;;;19.00;99.90;;;;;;4995480;28;20124;-88
2022/05/26 12:16:11;;;;;;;7.28;1.77;;;19.60;99.90;;;;;;4993974;28;20054;-89
2022/05/26 12:18:54;;;;;;;8.15;1.95;;;20.10;99.90;;;;;;5011898;28;20137;-88
2022/05/26 12:21:28;;;;;;;7.78;2.08;;;20.10;99.90;;;;;;5013041;28;20050;-88
2022/05/26 12:23:58;;;;;;;7.88;2.00;;;20.10;99.90;;;;;;4993966;28;20053;-87
2022/05/26 12:26:28;;;;;;;6.47;1.83;;;19.90;99.90;;;;;;4995324;28;20046;-88
2022/05/26 12:29:15;;;;;;;5.95;1.83;;;20.20;99.90;;;;;;5016301;28;20062;-88
2022/05/26 12:32:11;;;;;;;8.70;1.90;;;20.20;99.90;;;;;;4955583;28;20057;-88
2022/05/26 12:34:54;;;;;;;7.43;1.90;;;19.80;99.90;;;;;;5012875;28;20108;-88
2022/05/26 12:37:31;;;;;;;;;;;19.70;99.90;;;;;;4994828;28;20054;-89
2022/05/26 12:40:12;;;;;;;7.25;1.88;;;19.50;99.90;;;;;;4994740;28;19989;-88
2022/05/26 12:42:54;;;;;;;7.25;1.73;;;19.40;99.90;;;;;;4994869;28;20056;-88
2022/05/26 12:45:22;;;;;;;7.67;1.90;;;19.30;99.90;;;;;;4994228;28;20092;-88
2022/05/26 12:48:13;;;;;;;12.90;2.30;;;19.20;99.90;;;;;;4994715;28;20141;-88
2022/05/26 12:50:43;;;;;;;7.90;1.90;;;19.20;99.90;;;;;;4994312;28;20456;-89
2022/05/26 12:53:25;;;;;;;7.55;1.98;;;19.20;99.90;;;;;;4995400;28;20490;-88
2022/05/26 12:56:03;;;;;;;7.68;2.13;;;19.40;99.90;;;;;;5012488;28;20038;-88
2022/05/26 12:58:31;;;;;;;6.55;1.67;;;19.50;99.90;;;;;;4994802;28;20080;-88
2022/05/26 13:01:01;;;;;;;7.55;1.88;;;19.40;99.90;;;;;;5012657;28;20042;-88
2022/05/26 13:03:35;;;;;;;8.20;1.90;;;19.20;99.90;;;;;;4994745;28;20038;-89
2022/05/26 13:06:10;;;;;;;7.00;1.98;;;19.20;99.90;;;;;;4993693;28;20050;-88
2022/05/26 13:08:59;;;;;;;8.63;2.05;;;19.20;99.90;;;;;;5014425;28;20048;-85
2022/05/26 13:11:32;;;;;;;7.15;2.25;;;19.40;99.90;;;;;;5013596;28;20034;-87
2022/05/26 13:14:01;;;;;;;8.10;1.98;;;19.70;99.90;;;;;;5015882;28;20041;-87
2022/05/26 13:16:29;;;;;;;7.32;1.83;;;20.60;99.90;;;;;;4997452;28;20486;-87
2022/05/26 13:19:05;;;;;;;9.38;2.08;;;20.00;99.90;;;;;;5011252;28;20507;-86
2022/05/26 13:21:31;;;;;;;10.18;2.00;;;19.90;99.90;;;;;;4997255;28;20448;-87
2022/05/26 13:23:57;;;;;;;7.72;1.92;;;19.80;99.90;;;;;;5014393;28;20042;-86
2022/05/26 13:26:23;;;;;;;8.40;2.55;;;19.90;99.90;;;;;;5013327;28;20034;-86
2022/05/26 13:28:59;;;;;;;7.00;1.85;;;20.00;99.90;;;;;;5013547;28;20428;-86
2022/05/26 13:34:13;;;;;;;8.02;1.98;;;20.20;99.90;;;;;;5012728;28;20051;-86
2022/05/26 13:36:42;;;;;;;10.10;2.55;;;20.10;99.90;;;;;;5014051;28;20077;-88
2022/05/26 13:39:11;;;;;;;8.07;2.15;;;20.40;99.90;;;;;;5013676;28;20574;-86
2022/05/26 13:41:39;;;;;;;6.10;1.88;;;20.60;99.90;;;;;;5011529;28;20046;-86
2022/05/26 13:44:08;;;;;;;7.85;2.00;;;20.30;99.90;;;;;;5013894;28;20038;-86
2022/05/26 13:46:52;;;;;;;7.82;2.00;;;19.90;99.90;;;;;;5013270;28;20433;-88
2022/05/26 13:49:29;;;;;;;9.50;2.00;;;19.80;99.90;;;;;;4994550;28;20042;-87
2022/05/26 13:51:55;;;;;;;8.15;1.95;;;19.80;99.90;;;;;;5011971;28;20120;-87
2022/05/26 13:54:29;;;;;;;9.07;2.08;;;19.70;99.90;;;;;;4995916;28;20172;-87
2022/05/26 13:56:58;;;;;;;7.55;1.80;;;19.60;99.90;;;;;;5011833;28;20037;-87
2022/05/26 13:59:24;;;;;;;8.45;1.90;;;19.40;99.90;;;;;;4996244;28;20135;-87
2022/05/26 14:01:54;;;;;;;7.35;1.90;;;19.50;99.90;;;;;;4995880;28;20496;-87
2022/05/26 14:04:34;;;;;;;7.75;1.83;;;19.40;99.90;;;;;;5013057;28;20124;-87
2022/05/26 14:07:01;;;;;;;11.18;2.50;;;19.50;99.90;;;;;;5010885;28;20052;-88
2022/05/26 14:09:32;;;;;;;9.25;2.20;;;19.40;99.90;;;;;;5010590;28;20057;-86
2022/05/26 14:12:07;;;;;;;9.07;2.03;;;19.40;99.90;;;;;;5008256;28;20131;-87
2022/05/26 14:14:41;;;;;;;11.25;2.60;;;19.50;99.90;;;;;;5008924;28;20401;-86